Andrews, Indiana
Current Conditions -  °F | °C
As of 9:55 PM on Sunday 23 Nov 2014 (Local Time) from KHHG Reporting Station
Moderate Rain Moderate Rain  
Wind Chill: 11°   Ceiling: 700
Heat Index: 11°   Visibility: 7mi
Dew Point: 11°   Wind: 8mph
Humidity: 98%   Direction: 130°SE
Pressure: 29.23"   Gusts: NA
Location:  40.86°N, 85.6°W
Report Text: KHHG 240255Z AUTO 13007KT 7SM RA OVC007 11/11 A2923 RMK AO2 P0018 60046 T01100107
Loading
Personal Weather Stations






























Interactive Weather Map New forecast layout! Learn more

10-Day Weather Forecast

Advertisements
Track Severe Weather on mobile